Time;durP1;ratioP1;P1;durP2;ratioP2;P2;SDS_P1;SDS_P2;PMS_P1;PMS_P2;Temp;Humidity;BMP_temperature;BMP_pressure;BME280_temperature;BME280_humidity;BME280_pressure;Samples;Min_cycle;Max_cycle;Signal;HPM_P1;HPM_P2
2022/06/29 00:00:53;;;;;;;7.90;4.57;;;24.80;74.10;;;;;;4968786;28;20214;-76
2022/06/29 00:03:21;;;;;;;7.20;4.55;;;24.70;74.20;;;;;;4979976;28;20189;-75
2022/06/29 00:05:51;;;;;;;8.52;4.85;;;24.70;74.40;;;;;;4971065;28;20295;-75
2022/06/29 00:08:20;;;;;;;7.88;4.35;;;24.60;74.40;;;;;;4981669;28;20189;-75
2022/06/29 00:10:48;;;;;;;8.98;4.80;;;24.60;74.50;;;;;;4980528;28;20766;-76
2022/06/29 00:13:16;;;;;;;10.35;4.15;;;24.60;74.80;;;;;;4981622;28;20200;-75
2022/06/29 00:15:45;;;;;;;7.75;4.03;;;24.60;74.80;;;;;;4970187;28;20566;-75
2022/06/29 00:18:13;;;;;;;8.90;4.40;;;24.50;74.70;;;;;;4979059;28;20189;-75
2022/06/29 00:20:42;;;;;;;7.63;4.13;;;24.50;74.80;;;;;;4979734;28;20324;-75
2022/06/29 00:23:11;;;;;;;5.72;4.22;;;24.50;74.90;;;;;;4977888;28;20204;-75
2022/06/29 00:25:40;;;;;;;7.47;4.35;;;24.50;74.90;;;;;;4971382;28;20275;-75
2022/06/29 00:28:08;;;;;;;9.50;4.22;;;24.50;75.00;;;;;;4975087;28;20194;-75
2022/06/29 00:30:37;;;;;;;7.07;4.90;;;24.40;75.10;;;;;;4977164;28;20205;-75
2022/06/29 00:33:05;;;;;;;8.40;4.30;;;24.30;75.40;;;;;;4976403;28;20247;-76
2022/06/29 00:35:33;;;;;;;7.03;4.35;;;24.30;75.40;;;;;;4977366;28;20196;-76
2022/06/29 00:38:02;;;;;;;6.53;4.00;;;24.30;75.40;;;;;;4974176;28;20733;-75
2022/06/29 00:40:32;;;;;;;6.93;4.47;;;24.30;75.50;;;;;;4972944;28;20230;-75
2022/06/29 00:43:00;;;;;;;10.98;4.32;;;24.20;75.60;;;;;;4979497;28;20189;-75
2022/06/29 00:45:28;;;;;;;7.30;4.75;;;24.20;75.60;;;;;;4977972;28;20198;-75
2022/06/29 00:47:57;;;;;;;8.98;4.72;;;24.20;75.70;;;;;;4980823;28;20197;-75
2022/06/29 00:50:28;;;;;;;6.78;4.07;;;24.10;75.90;;;;;;4987132;28;20189;-75
2022/06/29 00:53:01;;;;;;;9.88;4.95;;;24.10;75.90;;;;;;4979370;28;20207;-76
2022/06/29 00:55:33;;;;;;;7.78;4.20;;;24.10;76.00;;;;;;4976401;28;20192;-75
2022/06/29 00:58:05;;;;;;;7.30;4.00;;;24.10;76.00;;;;;;4983360;28;20197;-75
2022/06/29 01:00:34;;;;;;;7.65;4.38;;;24.10;76.10;;;;;;4979958;28;20273;-75
2022/06/29 01:03:03;;;;;;;7.22;4.28;;;24.10;76.10;;;;;;4976093;28;20196;-76
2022/06/29 01:05:32;;;;;;;8.77;4.35;;;24.00;76.10;;;;;;4978427;28;20204;-75
2022/06/29 01:08:00;;;;;;;6.72;4.22;;;24.00;76.30;;;;;;4978910;28;20200;-75
2022/06/29 01:10:29;;;;;;;6.90;4.28;;;24.00;76.30;;;;;;4981084;28;20190;-75
2022/06/29 01:12:59;;;;;;;5.55;4.20;;;23.90;76.20;;;;;;4982758;28;20189;-75
2022/06/29 01:15:27;;;;;;;10.82;5.00;;;23.90;76.20;;;;;;4984925;28;20227;-76
2022/06/29 01:17:55;;;;;;;7.53;4.47;;;23.90;76.50;;;;;;4983668;28;20189;-75
2022/06/29 01:20:24;;;;;;;8.00;4.50;;;23.90;76.40;;;;;;4982627;28;20614;-76
2022/06/29 01:22:55;;;;;;;9.75;4.40;;;23.90;76.60;;;;;;4976353;28;20220;-75
2022/06/29 01:25:23;;;;;;;9.95;4.70;;;23.80;76.70;;;;;;4984640;28;20198;-76
2022/06/29 01:27:51;;;;;;;7.72;4.22;;;23.80;76.90;;;;;;4982349;28;20255;-75
2022/06/29 01:30:20;;;;;;;7.80;4.30;;;23.80;77.10;;;;;;4978708;28;20204;-76
2022/06/29 01:32:48;;;;;;;8.38;4.55;;;23.70;77.20;;;;;;4971595;28;20205;-75
2022/06/29 01:35:17;;;;;;;6.18;4.47;;;23.70;77.40;;;;;;4984641;28;20654;-76
2022/06/29 01:37:46;;;;;;;8.35;4.57;;;23.70;77.40;;;;;;4978994;28;20232;-76
2022/06/29 01:40:16;;;;;;;5.88;4.25;;;23.60;77.40;;;;;;4984038;28;20203;-75
2022/06/29 01:42:44;;;;;;;8.10;4.40;;;23.60;77.50;;;;;;4984897;28;20224;-75
2022/06/29 01:45:12;;;;;;;8.10;4.35;;;23.60;77.50;;;;;;4973620;28;20197;-75
2022/06/29 01:47:41;;;;;;;7.10;4.75;;;23.60;77.50;;;;;;4983139;28;20197;-75
2022/06/29 01:50:10;;;;;;;8.30;4.45;;;23.60;77.70;;;;;;4975558;28;20206;-75
2022/06/29 01:52:38;;;;;;;7.40;4.28;;;23.50;77.70;;;;;;4984390;28;20213;-75
2022/06/29 01:55:07;;;;;;;9.02;5.07;;;23.50;77.70;;;;;;4982199;28;20189;-75
2022/06/29 01:57:37;;;;;;;9.17;5.07;;;23.50;77.70;;;;;;4983688;28;20453;-76
2022/06/29 02:00:06;;;;;;;8.90;3.85;;;23.50;79.00;;;;;;4982967;28;20189;-76
2022/06/29 02:02:35;;;;;;;5.88;3.83;;;23.50;78.90;;;;;;4981268;28;20220;-75
2022/06/29 02:05:03;;;;;;;11.63;4.80;;;23.50;78.90;;;;;;4980633;28;20628;-76
2022/06/29 02:07:32;;;;;;;8.32;4.68;;;23.40;78.70;;;;;;4969615;28;20197;-75
2022/06/29 02:10:00;;;;;;;9.80;4.22;;;23.40;78.80;;;;;;4976609;28;20624;-76
2022/06/29 02:12:28;;;;;;;6.53;4.50;;;23.40;78.80;;;;;;4981188;28;20437;-75
2022/06/29 02:14:58;;;;;;;7.70;4.43;;;23.30;78.80;;;;;;4980869;28;20213;-75
2022/06/29 02:17:26;;;;;;;6.97;4.60;;;23.40;78.80;;;;;;4977391;28;20193;-75
2022/06/29 02:19:55;;;;;;;8.18;4.40;;;23.30;78.80;;;;;;4982312;28;20639;-75
2022/06/29 02:22:23;;;;;;;8.27;4.72;;;23.30;78.80;;;;;;4984120;28;20223;-75
2022/06/29 02:24:52;;;;;;;8.88;4.75;;;23.30;78.90;;;;;;4981954;28;20197;-75
2022/06/29 02:27:20;;;;;;;10.13;4.30;;;23.30;80.00;;;;;;4971653;28;20201;-75
2022/06/29 02:29:48;;;;;;;6.78;4.72;;;23.30;79.10;;;;;;4984419;28;20198;-76
2022/06/29 02:35:05;;;;;;;12.30;4.85;;;23.30;79.30;;;;;;4980830;28;20196;-76
2022/06/29 02:37:33;;;;;;;7.53;4.97;;;23.30;79.40;;;;;;4977223;28;20643;-75
2022/06/29 02:40:01;;;;;;;8.45;4.95;;;23.30;79.60;;;;;;4981100;28;20200;-75
2022/06/29 02:42:30;;;;;;;8.95;4.75;;;23.20;79.60;;;;;;4980427;28;20213;-75
2022/06/29 02:45:18;;;;;;;7.57;4.65;;;23.20;80.00;;;;;;4980075;28;20209;-75
2022/06/29 02:47:51;;;;;;;8.57;4.80;;;23.20;79.90;;;;;;4971838;28;20199;-75
2022/06/29 02:50:19;;;;;;;7.20;4.90;;;23.20;80.00;;;;;;4986163;28;20872;-76
2022/06/29 02:52:48;;;;;;;7.90;4.53;;;23.10;80.10;;;;;;4979519;28;20276;-75
2022/06/29 02:55:16;;;;;;;7.53;5.10;;;23.10;80.20;;;;;;4981288;28;20205;-75
2022/06/29 02:57:44;;;;;;;7.47;5.35;;;23.10;80.30;;;;;;4982262;28;20212;-76
2022/06/29 03:00:14;;;;;;;12.77;6.03;;;23.10;80.50;;;;;;4981667;28;20852;-75
2022/06/29 03:02:42;;;;;;;11.55;5.13;;;23.10;80.50;;;;;;4982967;28;20232;-75
2022/06/29 03:05:12;;;;;;;8.18;5.28;;;23.10;80.80;;;;;;4984659;28;20189;-75
2022/06/29 03:07:41;;;;;;;7.22;5.18;;;23.10;80.90;;;;;;4977739;28;20197;-75
2022/06/29 03:10:10;;;;;;;10.73;5.30;;;23.10;81.10;;;;;;4980347;28;20659;-75
2022/06/29 03:12:38;;;;;;;7.18;5.30;;;23.10;81.10;;;;;;4982569;28;20202;-76
2022/06/29 03:15:07;;;;;;;13.05;5.82;;;23.10;81.30;;;;;;4981790;28;20185;-74
2022/06/29 03:17:36;;;;;;;8.10;5.28;;;23.10;81.30;;;;;;4982223;28;20201;-75
2022/06/29 03:20:05;;;;;;;9.30;5.65;;;23.10;81.40;;;;;;4980993;28;20236;-75
2022/06/29 03:22:36;;;;;;;8.88;5.53;;;23.10;81.70;;;;;;4983256;28;21005;-76
2022/06/29 03:25:05;;;;;;;7.90;5.20;;;23.20;82.00;;;;;;4982755;28;20197;-75
2022/06/29 03:27:33;;;;;;;8.07;5.47;;;23.20;82.20;;;;;;4979941;28;20816;-75
2022/06/29 03:30:02;;;;;;;10.23;5.15;;;23.20;82.30;;;;;;4980623;28;20196;-76
2022/06/29 03:32:30;;;;;;;7.57;5.38;;;23.20;82.30;;;;;;4986393;28;20815;-75
2022/06/29 03:34:58;;;;;;;10.95;5.60;;;23.20;82.30;;;;;;4976646;28;20200;-75
2022/06/29 03:37:27;;;;;;;8.32;4.95;;;23.30;82.50;;;;;;4981643;28;20299;-75
2022/06/29 03:39:57;;;;;;;9.93;5.22;;;23.30;82.50;;;;;;4981518;28;20205;-75
2022/06/29 03:42:25;;;;;;;12.80;5.00;;;23.30;82.80;;;;;;4987925;28;20225;-75
2022/06/29 03:44:54;;;;;;;8.52;5.57;;;23.30;83.00;;;;;;4980987;28;20207;-75
2022/06/29 03:47:25;;;;;;;7.20;5.13;;;23.30;83.10;;;;;;4979199;28;20262;-75
2022/06/29 03:49:53;;;;;;;8.05;6.18;;;23.30;83.20;;;;;;4977435;28;20197;-74
2022/06/29 03:52:22;;;;;;;10.32;5.53;;;23.30;83.40;;;;;;4984377;28;20605;-75
2022/06/29 03:54:50;;;;;;;7.43;5.05;;;23.40;83.30;;;;;;4981587;28;20204;-74
2022/06/29 03:57:20;;;;;;;9.93;5.82;;;23.40;83.40;;;;;;4978717;28;20197;-74
2022/06/29 03:59:48;;;;;;;8.63;5.72;;;23.40;83.40;;;;;;4980785;28;20197;-75
2022/06/29 04:02:17;;;;;;;7.18;4.72;;;23.50;83.60;;;;;;4979496;28;20200;-75
2022/06/29 04:04:45;;;;;;;10.40;6.00;;;23.50;83.70;;;;;;4978667;28;20203;-75
2022/06/29 04:07:13;;;;;;;10.18;4.72;;;23.50;83.70;;;;;;4972440;28;20200;-75
2022/06/29 04:09:42;;;;;;;12.15;5.55;;;23.60;83.70;;;;;;4982298;28;20192;-75
2022/06/29 04:12:11;;;;;;;8.25;5.50;;;23.60;83.70;;;;;;4981889;28;20669;-75
2022/06/29 04:14:41;;;;;;;9.20;5.75;;;23.60;83.70;;;;;;4982687;28;20197;-76
2022/06/29 04:17:09;;;;;;;12.82;5.60;;;23.60;83.80;;;;;;4974815;28;20197;-76
2022/06/29 04:19:37;;;;;;;10.55;5.18;;;23.70;83.70;;;;;;4976459;28;20279;-75
2022/06/29 04:22:06;;;;;;;14.15;5.88;;;23.70;83.70;;;;;;4978349;28;20192;-76
2022/06/29 04:24:34;;;;;;;8.25;5.22;;;23.80;83.70;;;;;;4984541;28;20232;-76
2022/06/29 04:27:02;;;;;;;10.02;5.30;;;23.90;83.80;;;;;;4981248;28;20200;-76
2022/06/29 04:29:31;;;;;;;6.93;5.07;;;23.90;84.20;;;;;;4976395;28;20201;-75
2022/06/29 04:32:00;;;;;;;11.93;5.25;;;23.90;84.30;;;;;;4981709;28;20205;-75
2022/06/29 04:34:29;;;;;;;8.52;4.53;;;24.00;84.10;;;;;;4978528;28;20197;-76
2022/06/29 04:36:57;;;;;;;9.80;5.63;;;24.10;84.00;;;;;;4983668;28;20904;-76
2022/06/29 04:39:26;;;;;;;8.55;4.55;;;24.10;84.00;;;;;;4985941;28;20287;-76
2022/06/29 04:41:55;;;;;;;6.63;4.93;;;24.10;83.80;;;;;;4984812;28;20201;-75
2022/06/29 04:44:25;;;;;;;8.45;4.75;;;24.20;83.90;;;;;;4981072;28;20216;-74
2022/06/29 04:46:54;;;;;;;10.40;4.80;;;24.30;83.80;;;;;;4980845;28;20875;-75
2022/06/29 04:49:24;;;;;;;11.38;5.13;;;24.30;83.60;;;;;;4982084;28;20192;-75
2022/06/29 04:51:52;;;;;;;10.02;4.72;;;24.40;83.60;;;;;;4982895;28;20200;-75
2022/06/29 04:54:20;;;;;;;8.73;4.70;;;24.50;83.70;;;;;;4981265;28;20202;-75
2022/06/29 04:56:49;;;;;;;10.77;5.22;;;24.50;83.50;;;;;;4977105;28;20216;-75
2022/06/29 04:59:18;;;;;;;10.38;5.05;;;24.60;83.40;;;;;;4981423;28;20196;-75
2022/06/29 05:01:48;;;;;;;9.20;4.97;;;24.70;83.30;;;;;;4980387;28;20547;-74
2022/06/29 05:04:17;;;;;;;10.35;5.85;;;24.70;83.30;;;;;;4984327;28;20239;-75
2022/06/29 05:06:47;;;;;;;8.88;4.88;;;24.80;83.30;;;;;;4988127;28;20199;-75
2022/06/29 05:09:15;;;;;;;12.95;5.55;;;24.90;83.30;;;;;;4977195;28;20678;-76
2022/06/29 05:11:44;;;;;;;15.85;5.57;;;25.00;83.30;;;;;;4983088;28;20714;-75
2022/06/29 05:14:12;;;;;;;8.77;4.78;;;25.00;83.20;;;;;;4982608;28;20195;-75
2022/06/29 05:16:41;;;;;;;9.07;4.88;;;25.10;83.00;;;;;;4985004;28;20193;-75
2022/06/29 05:19:09;;;;;;;11.10;4.95;;;25.20;83.00;;;;;;4980391;28;20200;-75
2022/06/29 05:21:38;;;;;;;10.23;5.25;;;25.20;82.90;;;;;;4979286;28;20734;-75
2022/06/29 05:24:08;;;;;;;12.30;4.47;;;25.30;82.90;;;;;;4982375;28;20225;-75
2022/06/29 05:26:39;;;;;;;7.25;4.53;;;25.40;82.80;;;;;;4989302;28;20196;-75
2022/06/29 05:29:08;;;;;;;7.43;4.22;;;25.40;82.60;;;;;;4987106;28;20189;-75
2022/06/29 05:31:36;;;;;;;7.75;4.00;;;25.50;82.60;;;;;;4983462;28;20208;-75
2022/06/29 05:34:05;;;;;;;14.80;5.35;;;25.60;82.40;;;;;;4983839;28;20306;-75
2022/06/29 05:36:33;;;;;;;5.90;3.85;;;25.70;82.20;;;;;;4993097;28;20528;-75
2022/06/29 05:39:01;;;;;;;7.22;4.47;;;25.80;82.00;;;;;;4978847;28;20197;-75
2022/06/29 05:41:31;;;;;;;10.35;4.35;;;25.80;81.70;;;;;;4981234;28;20202;-75
2022/06/29 05:43:59;;;;;;;7.75;3.75;;;25.90;81.50;;;;;;4986470;28;20224;-75
2022/06/29 05:46:28;;;;;;;8.40;4.18;;;26.00;81.30;;;;;;4985470;28;20201;-75
2022/06/29 05:48:56;;;;;;;14.38;4.10;;;26.10;81.30;;;;;;4984565;28;20208;-75
2022/06/29 05:51:25;;;;;;;8.95;4.10;;;26.10;81.00;;;;;;4986747;28;20192;-75
2022/06/29 05:53:53;;;;;;;5.40;3.63;;;26.20;80.80;;;;;;4983371;28;20201;-75
2022/06/29 05:56:22;;;;;;;11.13;4.25;;;26.30;80.90;;;;;;4986205;28;20211;-74
2022/06/29 05:58:52;;;;;;;6.40;3.80;;;26.30;80.50;;;;;;4986161;28;21122;-75
2022/06/29 06:01:20;;;;;;;5.35;3.67;;;26.40;80.10;;;;;;4988937;28;20209;-76
2022/06/29 06:03:49;;;;;;;7.22;3.83;;;26.50;79.70;;;;;;4985696;28;20222;-75
2022/06/29 06:06:17;;;;;;;7.90;3.72;;;26.60;79.40;;;;;;4985373;28;20252;-75
2022/06/29 06:08:46;;;;;;;10.07;3.45;;;26.70;79.10;;;;;;4984859;28;20212;-75
2022/06/29 06:11:14;;;;;;;6.38;3.83;;;26.80;78.90;;;;;;4982278;28;20223;-75
2022/06/29 06:13:43;;;;;;;10.23;3.58;;;26.80;78.60;;;;;;4985401;28;20204;-75
2022/06/29 06:16:13;;;;;;;6.00;3.33;;;26.90;77.80;;;;;;4984643;28;20857;-75
2022/06/29 06:19:01;;;;;;;5.88;3.42;;;27.00;77.70;;;;;;4979818;28;20201;-74
2022/06/29 06:21:29;;;;;;;9.00;4.03;;;27.10;77.50;;;;;;4986481;28;20929;-74
2022/06/29 06:23:57;;;;;;;8.85;4.28;;;27.20;77.30;;;;;;4989335;28;20262;-75
2022/06/29 06:26:26;;;;;;;6.80;3.10;;;27.20;77.10;;;;;;4984481;28;20200;-75
2022/06/29 06:28:54;;;;;;;7.32;3.53;;;27.30;76.70;;;;;;4976995;28;20798;-75
2022/06/29 06:31:26;;;;;;;7.28;3.78;;;27.40;76.40;;;;;;4984178;28;20194;-74
2022/06/29 06:33:55;;;;;;;9.93;3.22;;;27.40;76.10;;;;;;4986046;28;20850;-74
2022/06/29 06:36:23;;;;;;;10.50;3.60;;;27.50;76.10;;;;;;4994122;28;20200;-75
2022/06/29 06:38:52;;;;;;;7.05;3.33;;;27.60;75.80;;;;;;4984636;28;20209;-75
2022/06/29 06:41:22;;;;;;;4.15;3.22;;;27.70;75.60;;;;;;4983814;28;20557;-74
2022/06/29 06:43:51;;;;;;;7.63;3.40;;;27.70;74.70;;;;;;4986311;28;20200;-75
2022/06/29 06:46:20;;;;;;;7.85;3.45;;;27.80;74.40;;;;;;4981750;28;20201;-74
2022/06/29 06:48:51;;;;;;;5.63;3.35;;;27.90;74.40;;;;;;4989798;28;20296;-74
2022/06/29 06:51:20;;;;;;;5.82;3.13;;;27.90;74.30;;;;;;4985675;28;20197;-75
2022/06/29 06:53:49;;;;;;;9.32;4.00;;;28.00;74.30;;;;;;4992717;28;20223;-74
2022/06/29 06:56:17;;;;;;;5.90;3.50;;;28.10;74.00;;;;;;4981069;28;20197;-74
2022/06/29 06:58:46;;;;;;;8.10;3.60;;;28.20;73.80;;;;;;4988189;28;20198;-75
2022/06/29 07:01:21;;;;;;;5.25;3.35;;;28.30;73.30;;;;;;4984256;28;20543;-74
2022/06/29 07:03:51;;;;;;;7.65;3.80;;;28.30;72.90;;;;;;4980933;28;20212;-74
2022/06/29 07:06:20;;;;;;;5.10;3.42;;;28.40;72.60;;;;;;4981220;28;20201;-75
2022/06/29 07:08:49;;;;;;;8.77;3.38;;;28.40;72.20;;;;;;4984048;28;20204;-75
2022/06/29 07:11:18;;;;;;;3.90;2.72;;;28.50;71.00;;;;;;4983887;28;20188;-75
2022/06/29 07:13:46;;;;;;;5.22;3.20;;;28.60;71.60;;;;;;4983550;28;20193;-75
2022/06/29 07:16:15;;;;;;;5.00;3.17;;;28.60;70.20;;;;;;4977034;28;20200;-75
2022/06/29 07:18:44;;;;;;;8.45;3.58;;;28.70;69.80;;;;;;4989367;28;20257;-76
2022/06/29 07:21:13;;;;;;;7.07;3.40;;;28.80;69.40;;;;;;4980203;28;20886;-75
2022/06/29 07:23:42;;;;;;;6.28;3.25;;;28.80;68.50;;;;;;4983360;28;20201;-75
2022/06/29 07:26:10;;;;;;;6.47;3.17;;;28.90;68.30;;;;;;4983204;28;20213;-75
2022/06/29 07:28:39;;;;;;;11.00;3.78;;;28.90;68.20;;;;;;4984520;28;20201;-74
2022/06/29 07:31:08;;;;;;;6.22;3.63;;;29.00;68.10;;;;;;4981831;28;20307;-75
2022/06/29 07:33:37;;;;;;;6.70;3.40;;;29.10;68.20;;;;;;4982941;28;20881;-75
2022/06/29 07:36:06;;;;;;;7.05;3.80;;;29.10;68.00;;;;;;4983061;28;20201;-75
2022/06/29 07:38:37;;;;;;;10.82;3.15;;;29.10;67.80;;;;;;4986470;28;20203;-75
2022/06/29 07:41:05;;;;;;;6.05;3.70;;;29.20;67.10;;;;;;4986293;28;20200;-76
2022/06/29 07:43:33;;;;;;;6.70;3.25;;;29.20;67.50;;;;;;4985086;28;20197;-75
2022/06/29 07:46:03;;;;;;;8.60;3.42;;;29.30;67.20;;;;;;4991693;28;21072;-75
2022/06/29 07:48:31;;;;;;;7.43;3.47;;;29.40;67.20;;;;;;4989053;28;20278;-75
2022/06/29 07:50:59;;;;;;;6.80;3.53;;;29.40;66.00;;;;;;4986972;28;20251;-75
2022/06/29 07:53:28;;;;;;;5.72;3.30;;;29.40;66.00;;;;;;4983243;28;20234;-75
2022/06/29 07:55:58;;;;;;;4.43;2.97;;;29.50;65.20;;;;;;4988421;28;20204;-74
2022/06/29 07:58:26;;;;;;;9.40;3.10;;;29.50;64.40;;;;;;4983458;28;20595;-75
2022/06/29 08:00:58;;;;;;;5.20;3.15;;;29.60;64.70;;;;;;4984096;28;20207;-77
2022/06/29 08:03:27;;;;;;;9.35;3.20;;;29.60;64.60;;;;;;4987050;28;20189;-75
2022/06/29 08:05:55;;;;;;;7.50;3.10;;;29.70;64.40;;;;;;4981953;28;20720;-74
2022/06/29 08:08:23;;;;;;;9.13;2.97;;;29.70;63.60;;;;;;4983294;28;20201;-75
2022/06/29 08:10:52;;;;;;;10.05;3.47;;;29.80;63.90;;;;;;4979215;28;20196;-75
2022/06/29 08:13:21;;;;;;;4.18;2.90;;;29.80;63.80;;;;;;4979009;28;20194;-74
2022/06/29 08:15:50;;;;;;;6.85;3.67;;;29.90;63.60;;;;;;4982350;28;20197;-75
2022/06/29 08:18:18;;;;;;;6.05;3.25;;;29.90;63.40;;;;;;4985271;28;20591;-75
2022/06/29 08:20:47;;;;;;;5.90;3.28;;;29.90;62.80;;;;;;4980826;28;20228;-74
2022/06/29 08:23:15;;;;;;;4.15;2.90;;;30.00;63.00;;;;;;4978523;28;20193;-74
2022/06/29 08:25:43;;;;;;;5.32;3.08;;;30.00;62.50;;;;;;4980262;28;20243;-74
2022/06/29 08:28:33;;;;;;;8.45;3.30;;;30.10;62.50;;;;;;4977280;28;20201;-74
2022/06/29 08:31:02;;;;;;;6.53;3.22;;;30.20;62.40;;;;;;4974485;28;20247;-74
2022/06/29 08:33:30;;;;;;;5.95;2.60;;;30.20;62.30;;;;;;4979132;28;20189;-74
2022/06/29 08:35:58;;;;;;;3.85;2.95;;;30.20;62.00;;;;;;4984978;28;20222;-75
2022/06/29 08:38:27;;;;;;;6.70;2.95;;;30.30;61.60;;;;;;4982204;28;20738;-74
2022/06/29 08:40:57;;;;;;;8.05;3.00;;;30.30;61.00;;;;;;4982884;28;20212;-74
2022/06/29 08:43:26;;;;;;;5.50;3.05;;;30.40;61.10;;;;;;4981022;28;20211;-75
2022/06/29 08:45:57;;;;;;;5.72;2.92;;;30.40;60.40;;;;;;4982818;28;20225;-75
2022/06/29 08:48:26;;;;;;;6.03;2.78;;;30.40;59.80;;;;;;4981206;28;20190;-74
2022/06/29 08:50:55;;;;;;;5.88;3.15;;;30.50;59.70;;;;;;4980489;28;20232;-75
2022/06/29 08:53:24;;;;;;;5.97;2.60;;;30.50;59.70;;;;;;4975615;28;20212;-75
2022/06/29 08:55:55;;;;;;;7.20;2.90;;;30.60;59.60;;;;;;4979952;28;20196;-75
2022/06/29 08:58:25;;;;;;;8.00;2.60;;;30.60;59.10;;;;;;4977493;28;20197;-74
2022/06/29 09:00:54;;;;;;;5.88;2.78;;;30.70;58.30;;;;;;4981206;28;20276;-75
2022/06/29 09:03:24;;;;;;;8.05;2.95;;;30.70;58.20;;;;;;4982709;28;20236;-76
2022/06/29 09:05:55;;;;;;;6.32;2.92;;;30.80;57.00;;;;;;4982445;28;20247;-75
2022/06/29 09:08:23;;;;;;;5.05;2.85;;;30.80;57.30;;;;;;4977355;28;20189;-75
2022/06/29 09:10:52;;;;;;;7.78;3.22;;;30.80;56.80;;;;;;4985973;28;20588;-75
2022/06/29 09:13:25;;;;;;;6.13;2.20;;;30.90;56.50;;;;;;4986190;28;20201;-75
2022/06/29 09:16:00;;;;;;;5.93;2.63;;;30.90;55.90;;;;;;4984793;28;20208;-75
2022/06/29 09:18:31;;;;;;;7.40;2.75;;;30.90;55.40;;;;;;4983183;28;20808;-75
2022/06/29 09:21:01;;;;;;;6.07;2.60;;;31.00;55.70;;;;;;4982254;28;20225;-74
2022/06/29 09:23:31;;;;;;;5.05;2.50;;;31.10;55.70;;;;;;4983826;28;20650;-74
2022/06/29 09:26:00;;;;;;;6.78;2.58;;;31.20;55.30;;;;;;4976669;28;20220;-75
2022/06/29 09:28:31;;;;;;;7.28;2.45;;;31.20;55.10;;;;;;4982557;28;20212;-75
2022/06/29 09:31:06;;;;;;;6.95;3.00;;;31.30;55.20;;;;;;4984911;28;20224;-76
2022/06/29 09:33:37;;;;;;;3.90;2.53;;;31.30;54.90;;;;;;4980885;28;20200;-75
2022/06/29 09:36:09;;;;;;;3.53;2.30;;;31.40;54.90;;;;;;4987684;28;20205;-75
2022/06/29 09:38:38;;;;;;;9.32;2.40;;;31.40;53.50;;;;;;4987875;28;20715;-77
2022/06/29 09:41:08;;;;;;;5.07;2.78;;;31.50;53.30;;;;;;4984055;28;20201;-75
2022/06/29 09:43:38;;;;;;;8.02;2.70;;;31.50;53.20;;;;;;4986334;28;20263;-74
2022/06/29 09:46:07;;;;;;;6.03;2.40;;;31.60;53.50;;;;;;4986800;28;20228;-76
2022/06/29 09:48:39;;;;;;;5.45;2.10;;;31.60;53.50;;;;;;4971630;28;20210;-75
2022/06/29 09:53:55;;;;;;;7.95;2.38;;;31.70;52.90;;;;;;4971908;28;20216;-75
2022/06/29 09:56:25;;;;;;;4.70;2.03;;;31.80;52.60;;;;;;4977155;28;20189;-76
2022/06/29 09:58:58;;;;;;;5.03;2.13;;;31.80;52.60;;;;;;4986003;28;20197;-76
2022/06/29 10:04:17;;;;;;;6.35;2.40;;;31.90;49.90;;;;;;5000900;28;20200;-76
2022/06/29 10:06:46;;;;;;;4.72;1.90;;;32.00;50.60;;;;;;4991974;28;21858;-77
2022/06/29 10:09:15;;;;;;;4.82;1.90;;;32.10;50.00;;;;;;4983769;28;20208;-75
2022/06/29 10:14:57;;;;;;;2.83;1.50;;;32.20;49.90;;;;;;4983635;28;20656;-75
2022/06/29 10:17:42;;;;;;;4.13;1.80;;;32.20;49.30;;;;;;4976825;28;20563;-75
2022/06/29 10:20:29;;;;;;;2.83;1.80;;;32.40;49.30;;;;;;4988426;28;20219;-74
2022/06/29 10:22:57;;;;;;;3.97;1.80;;;32.40;47.60;;;;;;4987537;28;20193;-75
2022/06/29 10:25:28;;;;;;;5.10;1.60;;;32.40;48.10;;;;;;4982673;28;20196;-76
2022/06/29 10:28:10;;;;;;;4.05;1.90;;;32.50;48.00;;;;;;4985350;28;20209;-75
2022/06/29 10:30:39;;;;;;;8.65;1.95;;;32.60;48.10;;;;;;4987549;28;20254;-76
2022/06/29 10:33:35;;;;;;;3.67;1.73;;;32.60;48.40;;;;;;4986123;28;20674;-74
2022/06/29 10:36:07;;;;;;;3.75;2.00;;;32.70;48.30;;;;;;4978129;28;20193;-75
2022/06/29 10:39:09;;;;;;;3.65;1.70;;;32.80;48.20;;;;;;4979312;28;20279;-75
2022/06/29 10:44:59;;;;;;;3.70;1.90;;;32.90;47.70;;;;;;4982079;28;21033;-75
2022/06/29 10:47:28;;;;;;;7.00;1.95;;;33.00;47.70;;;;;;4981509;28;20218;-74
2022/06/29 10:50:23;;;;;;;3.42;2.25;;;33.00;47.20;;;;;;4979504;28;20204;-76
2022/06/29 10:52:54;;;;;;;4.47;1.80;;;33.10;47.20;;;;;;4972967;28;20697;-75
2022/06/29 10:55:23;;;;;;;8.50;2.22;;;33.10;47.60;;;;;;4986864;28;20922;-74
2022/06/29 10:57:52;;;;;;;6.47;1.90;;;33.20;47.80;;;;;;4982855;28;20256;-76
2022/06/29 11:00:23;;;;;;;2.42;1.58;;;33.20;48.00;;;;;;4980620;28;20288;-77
2022/06/29 11:02:52;;;;;;;7.07;2.08;;;33.20;47.70;;;;;;4977818;28;20197;-76
2022/06/29 11:05:21;;;;;;;5.45;2.05;;;33.30;47.60;;;;;;4981290;28;20208;-75
2022/06/29 11:13:26;;;;;;;3.30;1.85;;;33.40;46.60;;;;;;4983473;28;20193;-75
2022/06/29 11:15:55;;;;;;;3.55;1.90;;;33.50;46.40;;;;;;4982640;28;20201;-76
2022/06/29 11:18:28;;;;;;;6.50;2.08;;;33.50;46.90;;;;;;4984238;28;20643;-77
2022/06/29 11:21:02;;;;;;;4.82;1.83;;;33.60;47.00;;;;;;4982714;28;20220;-78
2022/06/29 11:23:34;;;;;;;6.78;1.90;;;33.60;45.50;;;;;;4980992;28;20181;-76
2022/06/29 11:26:06;;;;;;;4.65;1.80;;;33.60;45.70;;;;;;4978791;28;20236;-77
2022/06/29 11:28:36;;;;;;;2.90;1.70;;;33.70;46.40;;;;;;4980264;28;20208;-78
2022/06/29 11:31:10;;;;;;;4.25;2.05;;;33.80;46.60;;;;;;4975371;28;20203;-76
2022/06/29 11:33:43;;;;;;;4.57;2.03;;;33.80;44.70;;;;;;4978865;28;20201;-77
2022/06/29 11:36:15;;;;;;;7.10;2.10;;;33.80;44.50;;;;;;4981270;28;20247;-75
2022/06/29 11:38:45;;;;;;;4.35;1.63;;;33.80;45.20;;;;;;4983962;28;20821;-76
2022/06/29 11:41:16;;;;;;;3.75;1.52;;;33.90;45.60;;;;;;4983145;28;20207;-75
2022/06/29 11:44:02;;;;;;;4.80;1.73;;;34.00;46.20;;;;;;4986581;28;20199;-76
2022/06/29 11:46:35;;;;;;;4.97;1.48;;;34.00;46.30;;;;;;4975228;28;20677;-75
2022/06/29 11:51:54;;;;;;;5.90;1.63;;;34.10;45.60;;;;;;4979784;28;20272;-76
2022/06/29 11:54:37;;;;;;;3.35;1.63;;;34.20;44.60;;;;;;4991160;28;20618;-79
2022/06/29 11:57:10;;;;;;;4.60;1.70;;;34.20;44.40;;;;;;4983965;28;20303;-76
2022/06/29 11:59:39;;;;;;;3.97;1.67;;;34.30;44.80;;;;;;4982407;28;20194;-76
2022/06/29 12:02:09;;;;;;;4.07;1.45;;;34.40;45.00;;;;;;4980391;28;20251;-76
2022/06/29 12:04:38;;;;;;;5.18;1.40;;;34.40;44.60;;;;;;4980123;28;20606;-77
2022/06/29 12:07:09;;;;;;;3.72;1.63;;;34.40;44.00;;;;;;4982361;28;20606;-77
2022/06/29 12:09:39;;;;;;;3.47;1.70;;;34.50;43.90;;;;;;4983218;28;20280;-76
2022/06/29 12:12:10;;;;;;;3.38;1.52;;;34.60;42.50;;;;;;4979542;28;20197;-78
2022/06/29 12:14:40;;;;;;;2.25;1.42;;;34.60;42.60;;;;;;4983919;28;20199;-76
2022/06/29 12:17:10;;;;;;;4.45;1.40;;;34.60;41.40;;;;;;4980551;28;20193;-75
2022/06/29 12:19:39;;;;;;;2.42;1.60;;;34.70;42.00;;;;;;4981849;28;20365;-75
2022/06/29 12:22:08;;;;;;;2.90;1.30;;;34.80;42.80;;;;;;4980927;28;20196;-75
2022/06/29 12:24:36;;;;;;;3.97;1.33;;;34.80;42.50;;;;;;4971009;28;20206;-75
2022/06/29 12:27:05;;;;;;;3.75;1.67;;;34.90;42.90;;;;;;4983253;28;20221;-75
2022/06/29 12:29:35;;;;;;;2.75;1.23;;;35.00;42.90;;;;;;4976910;28;20200;-75
2022/06/29 12:32:04;;;;;;;5.63;1.70;;;35.20;43.40;;;;;;4975971;28;20957;-75
2022/06/29 12:34:33;;;;;;;4.10;1.40;;;35.30;43.30;;;;;;4980241;28;20292;-75
2022/06/29 12:37:03;;;;;;;2.08;1.30;;;35.40;43.40;;;;;;4981358;28;20197;-77
2022/06/29 12:39:32;;;;;;;2.20;1.40;;;35.50;43.40;;;;;;4976835;28;20297;-77
2022/06/29 12:42:01;;;;;;;2.65;1.58;;;35.60;42.80;;;;;;4979002;28;20669;-76
2022/06/29 12:44:30;;;;;;;3.20;1.42;;;35.70;41.90;;;;;;4983660;28;20189;-75
2022/06/29 12:46:59;;;;;;;3.95;1.30;;;35.80;41.40;;;;;;4988658;28;20197;-75
2022/06/29 12:49:28;;;;;;;3.33;1.40;;;36.00;41.80;;;;;;4980891;28;20193;-77
2022/06/29 12:51:56;;;;;;;2.05;1.30;;;36.10;41.30;;;;;;4982714;28;20201;-75
2022/06/29 12:54:24;;;;;;;3.35;1.48;;;36.20;40.30;;;;;;4981501;28;20211;-75
2022/06/29 12:56:53;;;;;;;5.47;1.67;;;36.30;40.60;;;;;;4985534;28;21427;-75
2022/06/29 12:59:21;;;;;;;4.07;1.23;;;36.40;40.80;;;;;;4981076;28;20189;-76
2022/06/29 13:01:51;;;;;;;2.30;1.38;;;36.50;41.10;;;;;;4984315;28;20204;-76
2022/06/29 13:04:21;;;;;;;1.98;1.20;;;36.60;41.30;;;;;;4980684;28;20204;-75
2022/06/29 13:06:50;;;;;;;2.00;1.33;;;36.80;40.90;;;;;;4985772;28;20653;-76
2022/06/29 13:09:19;;;;;;;2.20;1.13;;;36.90;39.80;;;;;;4988324;28;20752;-76
2022/06/29 13:11:47;;;;;;;6.50;1.67;;;37.00;40.00;;;;;;4993173;28;20211;-76
2022/06/29 13:14:16;;;;;;;2.08;1.40;;;37.20;40.30;;;;;;4987213;28;20189;-77
2022/06/29 13:16:45;;;;;;;1.50;1.23;;;37.30;39.80;;;;;;4984516;28;20200;-76
2022/06/29 13:19:14;;;;;;;1.80;1.15;;;37.50;40.00;;;;;;4986569;28;20197;-75
2022/06/29 13:21:44;;;;;;;2.20;1.50;;;37.70;39.90;;;;;;4987439;28;20199;-75